Time,TemperatureF,DewpointF,PressureIn,WindDirection,WindDirectionDegrees,WindSpeedMPH,WindSpeedGustMPH,Humidity,HourlyPrecipIn,Conditions,Clouds,dailyrainin,SolarRadiationWatts/m^2,SoftwareType,DateUTC
2013-06-23 00:02:00,58.0,56.0,29.88,SE,143,0.0,2.0,93,0.02,,,0.06,0.000000,,2013-06-23 07:02:00,
2013-06-23 00:12:00,58.0,56.0,29.88,SE,143,0.0,2.0,93,0.02,,,0.06,0.000000,,2013-06-23 07:12:00,
2013-06-23 00:22:00,58.0,56.0,29.88,SE,143,0.0,3.0,93,0.02,,,0.06,0.000000,,2013-06-23 07:22:00,
2013-06-23 00:34:00,58.0,56.0,29.88,SSE,161,4.0,8.0,93,0.01,,,0.06,0.000000,,2013-06-23 07:34:00,
2013-06-23 00:43:00,58.0,56.0,29.88,SSE,161,4.0,8.0,93,0.01,,,0.06,0.000000,,2013-06-23 07:43:00,
2013-06-23 00:53:00,59.0,57.0,29.88,South,171,4.0,8.0,93,0.02,,,0.07,0.000000,,2013-06-23 07:53:00,
2013-06-23 01:02:00,59.0,57.0,29.87,South,182,7.0,9.0,93,0.01,,,0.07,0.000000,,2013-06-23 08:02:00,
2013-06-23 01:11:00,59.0,57.0,29.87,South,182,7.0,9.0,93,0.01,,,0.07,0.000000,,2013-06-23 08:11:00,
2013-06-23 01:22:00,59.0,57.0,29.87,South,189,10.0,12.0,93,0.01,,,0.07,0.000000,,2013-06-23 08:22:00,
2013-06-23 01:33:00,60.0,58.0,29.86,South,177,8.0,19.0,94,0.01,,,0.07,0.000000,,2013-06-23 08:33:00,
2013-06-23 01:42:00,60.0,58.0,29.86,South,177,8.0,19.0,94,0.01,,,0.07,0.000000,,2013-06-23 08:42:00,
2013-06-23 01:53:00,59.0,57.0,29.86,South,179,1.0,9.0,93,0.00,,,0.07,0.000000,,2013-06-23 08:53:00,
2013-06-23 02:02:00,59.0,57.0,29.85,SSE,167,5.0,10.0,93,0.00,,,0.07,0.000000,,2013-06-23 09:02:00,
2013-06-23 02:12:00,59.0,57.0,29.85,SSE,167,5.0,10.0,93,0.00,,,0.07,0.000000,,2013-06-23 09:12:00,
2013-06-23 02:22:00,59.0,57.0,29.85,SSW,196,1.0,5.0,93,0.00,,,0.07,0.000000,,2013-06-23 09:22:00,
2013-06-23 02:34:00,59.0,57.0,29.85,South,178,4.0,8.0,94,0.00,,,0.07,0.000000,,2013-06-23 09:34:00,
2013-06-23 02:43:00,59.0,57.0,29.85,South,178,4.0,8.0,94,0.00,,,0.07,0.000000,,2013-06-23 09:43:00,
2013-06-23 02:53:00,59.0,57.0,29.84,South,169,5.0,10.0,94,0.00,,,0.07,0.000000,,2013-06-23 09:53:00,
2013-06-23 03:02:00,59.0,57.0,29.84,SSE,160,4.0,10.0,94,0.01,,,0.08,0.000000,,2013-06-23 10:02:00,
2013-06-23 03:11:00,59.0,57.0,29.84,SSE,160,4.0,10.0,94,0.01,,,0.08,0.000000,,2013-06-23 10:11:00,
2013-06-23 03:22:00,59.0,57.0,29.83,South,173,4.0,10.0,94,0.01,,,0.08,0.000000,,2013-06-23 10:22:00,
2013-06-23 03:34:00,59.0,57.0,29.83,SSE,167,0.0,5.0,94,0.01,,,0.08,0.000000,,2013-06-23 10:34:00,
2013-06-23 03:43:00,59.0,57.0,29.83,SSE,167,0.0,5.0,94,0.01,,,0.08,0.000000,,2013-06-23 10:43:00,
2013-06-23 03:53:00,59.0,57.0,29.83,ESE,121,0.0,5.0,94,0.02,,,0.09,0.000000,,2013-06-23 10:53:00,
2013-06-23 04:01:00,59.0,57.0,29.83,SSE,163,0.0,3.0,94,0.01,,,0.09,0.000000,,2013-06-23 11:01:00,
2013-06-23 04:11:00,59.0,57.0,29.83,SSE,163,0.0,3.0,94,0.01,,,0.09,0.000000,,2013-06-23 11:11:00,
2013-06-23 04:22:00,59.0,57.0,29.82,SSE,166,4.0,6.0,94,0.01,,,0.09,0.000000,,2013-06-23 11:22:00,
2013-06-23 04:33:00,59.0,57.0,29.81,SSE,163,0.0,1.0,94,0.01,,,0.09,0.000000,,2013-06-23 11:33:00,
2013-06-23 04:43:00,59.0,57.0,29.81,SSE,163,0.0,1.0,94,0.01,,,0.09,0.000000,,2013-06-23 11:43:00,
2013-06-23 04:53:00,58.0,56.0,29.81,SSE,155,0.0,4.0,94,0.00,,,0.09,0.000000,,2013-06-23 11:53:00,
2013-06-23 05:01:00,59.0,57.0,29.80,South,177,4.0,9.0,94,0.00,,,0.09,0.000000,,2013-06-23 12:01:00,
2013-06-23 05:11:00,59.0,57.0,29.80,South,177,4.0,9.0,94,0.00,,,0.09,0.000000,,2013-06-23 12:11:00,
2013-06-23 05:22:00,59.0,57.0,29.80,SSE,164,0.0,0.0,94,0.00,,,0.09,0.000000,,2013-06-23 12:22:00,
2013-06-23 05:33:00,59.0,57.0,29.80,SSE,164,0.0,0.0,94,0.00,,,0.09,0.000000,,2013-06-23 12:33:00,
2013-06-23 05:42:00,59.0,57.0,29.80,South,187,1.0,3.0,94,0.00,,,0.09,0.000000,,2013-06-23 12:42:00,
2013-06-23 05:53:00,59.0,57.0,29.80,South,187,0.0,4.0,94,0.00,,,0.09,0.000000,,2013-06-23 12:53:00,
2013-06-23 06:01:00,59.0,57.0,29.80,South,174,3.0,9.0,94,0.01,,,0.10,0.000000,,2013-06-23 13:01:00,
2013-06-23 06:23:00,59.0,57.0,29.80,South,191,4.0,8.0,94,0.01,,,0.10,5.000000,,2013-06-23 13:23:00,
2013-06-23 06:33:00,59.0,57.0,29.80,SSE,167,5.0,9.0,94,0.01,,,0.10,5.000000,,2013-06-23 13:33:00,
2013-06-23 06:43:00,59.0,57.0,29.80,SSE,167,5.0,9.0,94,0.01,,,0.10,5.000000,,2013-06-23 13:43:00,
2013-06-23 06:54:00,59.0,58.0,29.79,South,185,5.0,9.0,95,0.02,,,0.11,12.000000,,2013-06-23 13:54:00,
2013-06-23 07:04:00,59.0,58.0,29.79,South,185,5.0,9.0,95,0.02,,,0.11,12.000000,,2013-06-23 14:04:00,
2013-06-23 07:11:00,59.0,58.0,29.79,South,187,5.0,8.0,95,0.01,,,0.11,16.000000,,2013-06-23 14:11:00,
2013-06-23 07:33:00,59.0,58.0,29.79,South,183,5.0,10.0,95,0.01,,,0.11,33.000000,,2013-06-23 14:33:00,
2013-06-23 07:44:00,59.0,58.0,29.79,SSW,198,6.0,10.0,95,0.02,,,0.12,44.000000,,2013-06-23 14:44:00,
2013-06-23 07:52:00,59.0,58.0,29.79,SSW,198,7.0,12.0,95,0.01,,,0.12,53.000000,,2013-06-23 14:52:00,
2013-06-23 08:05:00,60.0,59.0,29.78,SSW,193,9.0,13.0,95,0.01,,,0.12,63.000000,,2013-06-23 15:05:00,
2013-06-23 08:11:00,60.0,59.0,29.78,SSW,193,9.0,13.0,95,0.01,,,0.12,63.000000,,2013-06-23 15:11:00,
2013-06-23 08:22:00,60.0,59.0,29.78,South,189,10.0,14.0,95,0.01,,,0.12,62.000000,,2013-06-23 15:22:00,
2013-06-23 08:34:00,60.0,59.0,29.78,South,191,7.0,13.0,95,0.00,,,0.12,86.000000,,2013-06-23 15:34:00,
2013-06-23 08:43:00,60.0,59.0,29.78,South,191,7.0,13.0,95,0.00,,,0.12,86.000000,,2013-06-23 15:43:00,
2013-06-23 08:52:00,60.0,59.0,29.78,South,177,9.0,14.0,95,0.00,,,0.12,100.000000,,2013-06-23 15:52:00,
2013-06-23 09:05:00,60.0,59.0,29.78,SSW,198,7.0,12.0,95,0.00,,,0.12,91.000000,,2013-06-23 16:05:00,
2013-06-23 09:11:00,60.0,59.0,29.78,SSW,198,7.0,12.0,95,0.00,,,0.12,91.000000,,2013-06-23 16:11:00,
2013-06-23 09:22:00,60.0,59.0,29.78,SSW,206,7.0,11.0,95,0.00,,,0.12,111.000000,,2013-06-23 16:22:00,
2013-06-23 09:42:00,60.0,59.0,29.78,SSW,202,8.0,11.0,95,0.00,,,0.12,144.000000,,2013-06-23 16:42:00,
2013-06-23 09:53:00,60.0,59.0,29.78,South,175,9.0,12.0,95,0.00,,,0.12,172.000000,,2013-06-23 16:53:00,
2013-06-23 10:02:00,60.0,59.0,29.77,SSW,199,11.0,15.0,95,0.00,,,0.12,121.000000,,2013-06-23 17:02:00,
2013-06-23 10:11:00,60.0,59.0,29.77,SSW,199,11.0,15.0,95,0.00,,,0.12,121.000000,,2013-06-23 17:11:00,
2013-06-23 10:22:00,60.0,59.0,29.77,South,182,11.0,16.0,95,0.00,,,0.12,128.000000,,2013-06-23 17:22:00,
2013-06-23 10:33:00,60.0,59.0,29.76,SSW,196,9.0,15.0,95,0.00,,,0.12,127.000000,,2013-06-23 17:33:00,
2013-06-23 10:43:00,60.0,59.0,29.76,SSW,196,9.0,15.0,95,0.00,,,0.12,127.000000,,2013-06-23 17:43:00,
2013-06-23 10:53:00,60.0,59.0,29.76,South,190,13.0,16.0,95,0.00,,,0.12,229.000000,,2013-06-23 17:53:00,
2013-06-23 11:01:00,60.0,59.0,29.76,SSW,200,13.0,17.0,95,0.00,,,0.12,251.000000,,2013-06-23 18:01:00,
2013-06-23 11:11:00,60.0,59.0,29.76,SSW,200,13.0,17.0,95,0.00,,,0.12,251.000000,,2013-06-23 18:11:00,
2013-06-23 11:22:00,60.0,59.0,29.75,SSW,206,13.0,17.0,95,0.00,,,0.12,237.000000,,2013-06-23 18:22:00,
2013-06-23 11:34:00,60.0,59.0,29.76,SSW,202,13.0,17.0,95,0.00,,,0.12,346.000000,,2013-06-23 18:34:00,
2013-06-23 11:42:00,60.0,59.0,29.76,SSW,202,13.0,17.0,95,0.00,,,0.12,346.000000,,2013-06-23 18:42:00,
2013-06-23 11:53:00,60.0,59.0,29.75,SSW,196,10.0,14.0,96,0.00,,,0.12,345.000000,,2013-06-23 18:53:00,
2013-06-23 12:01:00,61.0,60.0,29.75,SSW,205,9.0,13.0,95,0.00,,,0.12,464.000000,,2013-06-23 19:01:00,
2013-06-23 12:11:00,61.0,60.0,29.75,SSW,205,9.0,13.0,95,0.00,,,0.12,464.000000,,2013-06-23 19:11:00,
2013-06-23 12:32:00,62.0,61.0,29.75,SSW,212,8.0,11.0,95,0.00,,,0.12,809.000000,,2013-06-23 19:32:00,
2013-06-23 12:43:00,62.0,60.0,29.74,SW,223,5.0,8.0,94,0.00,,,0.12,575.000000,,2013-06-23 19:43:00,
2013-06-23 12:53:00,62.0,60.0,29.74,SW,225,4.0,5.0,94,0.00,,,0.12,603.000000,,2013-06-23 19:53:00,
2013-06-23 13:01:00,63.0,61.0,29.73,SW,231,3.0,5.0,94,0.00,,,0.12,459.000000,,2013-06-23 20:01:00,
2013-06-23 13:11:00,63.0,61.0,29.73,SW,231,3.0,5.0,94,0.00,,,0.12,459.000000,,2013-06-23 20:11:00,
2013-06-23 13:23:00,62.0,60.0,29.73,SW,231,2.0,5.0,94,0.00,,,0.12,206.000000,,2013-06-23 20:23:00,
2013-06-23 13:33:00,61.0,59.0,29.73,SW,219,3.0,4.0,94,0.00,,,0.12,343.000000,,2013-06-23 20:33:00,
2013-06-23 13:42:00,61.0,59.0,29.73,SW,219,3.0,4.0,94,0.00,,,0.12,343.000000,,2013-06-23 20:42:00,
2013-06-23 13:53:00,62.0,60.0,29.73,SW,215,4.0,6.0,94,0.00,,,0.12,580.000000,,2013-06-23 20:53:00,
2013-06-23 14:01:00,63.0,61.0,29.73,SSW,206,6.0,7.0,93,0.00,,,0.12,659.000000,,2013-06-23 21:01:00,
2013-06-23 14:11:00,63.0,61.0,29.73,SSW,206,6.0,7.0,93,0.00,,,0.12,659.000000,,2013-06-23 21:11:00,
2013-06-23 14:22:00,63.0,61.0,29.72,SSW,203,5.0,6.0,92,0.00,,,0.12,703.000000,,2013-06-23 21:22:00,
2013-06-23 14:33:00,63.0,61.0,29.73,SSW,203,5.0,6.0,92,0.00,,,0.12,357.000000,,2013-06-23 21:33:00,
2013-06-23 14:43:00,63.0,61.0,29.73,SSW,203,5.0,6.0,92,0.00,,,0.12,357.000000,,2013-06-23 21:43:00,
2013-06-23 14:52:00,61.0,59.0,29.73,SSW,202,7.0,9.0,94,0.00,,,0.12,269.000000,,2013-06-23 21:52:00,
2013-06-23 15:01:00,61.0,60.0,29.72,SSW,196,6.0,9.0,95,0.00,,,0.12,438.000000,,2013-06-23 22:01:00,
2013-06-23 15:11:00,61.0,60.0,29.72,SSW,196,6.0,9.0,95,0.00,,,0.12,438.000000,,2013-06-23 22:11:00,
2013-06-23 15:22:00,61.0,60.0,29.72,SSW,199,8.0,10.0,95,0.00,,,0.12,348.000000,,2013-06-23 22:22:00,
2013-06-23 15:32:00,61.0,60.0,29.71,SSW,201,10.0,12.0,96,0.00,,,0.12,738.000000,,2013-06-23 22:32:00,
2013-06-23 15:43:00,61.0,60.0,29.71,SSW,201,10.0,12.0,96,0.00,,,0.12,738.000000,,2013-06-23 22:43:00,
2013-06-23 15:53:00,61.0,60.0,29.71,SSW,199,12.0,15.0,95,0.00,,,0.12,531.000000,,2013-06-23 22:53:00,
2013-06-23 16:01:00,61.0,60.0,29.71,SSW,196,12.0,14.0,95,0.00,,,0.12,367.000000,,2013-06-23 23:01:00,
2013-06-23 16:11:00,61.0,60.0,29.71,SSW,196,12.0,14.0,95,0.00,,,0.12,367.000000,,2013-06-23 23:11:00,
2013-06-23 16:22:00,61.0,60.0,29.71,SSW,201,11.0,14.0,95,0.00,,,0.12,278.000000,,2013-06-23 23:22:00,
2013-06-23 16:33:00,61.0,60.0,29.70,SSW,204,8.0,12.0,95,0.00,,,0.12,355.000000,,2013-06-23 23:33:00,
2013-06-23 16:44:00,61.0,60.0,29.70,SSW,204,8.0,12.0,95,0.00,,,0.12,355.000000,,2013-06-23 23:44:00,
2013-06-23 16:52:00,61.0,60.0,29.70,SSW,208,10.0,11.0,95,0.00,,,0.12,258.000000,,2013-06-23 23:52:00,
2013-06-23 17:01:00,60.0,59.0,29.70,SSW,196,7.0,11.0,95,0.01,,,0.13,163.000000,,2013-06-24 00:01:00,
2013-06-23 17:11:00,60.0,59.0,29.70,SSW,196,7.0,11.0,95,0.01,,,0.13,163.000000,,2013-06-24 00:11:00,
2013-06-23 17:22:00,60.0,59.0,29.70,SSW,195,8.0,13.0,96,0.02,,,0.14,200.000000,,2013-06-24 00:22:00,
2013-06-23 17:33:00,60.0,59.0,29.69,South,191,10.0,13.0,95,0.03,,,0.15,60.000000,,2013-06-24 00:33:00,
2013-06-23 17:42:00,60.0,59.0,29.69,South,191,10.0,13.0,95,0.03,,,0.15,60.000000,,2013-06-24 00:42:00,
2013-06-23 17:52:00,60.0,59.0,29.68,SSW,206,12.0,16.0,96,0.03,,,0.15,70.000000,,2013-06-24 00:52:00,
2013-06-23 18:01:00,60.0,59.0,29.68,South,179,13.0,18.0,96,0.02,,,0.15,84.000000,,2013-06-24 01:01:00,
2013-06-23 18:11:00,60.0,59.0,29.68,South,179,13.0,18.0,96,0.02,,,0.15,84.000000,,2013-06-24 01:11:00,
2013-06-23 18:21:00,60.0,59.0,29.68,South,191,19.0,27.0,95,0.01,,,0.15,91.000000,,2013-06-24 01:21:00,
2013-06-23 18:32:00,60.0,59.0,29.68,South,180,18.0,26.0,95,0.00,,,0.15,56.000000,,2013-06-24 01:32:00,
2013-06-23 18:42:00,60.0,59.0,29.68,South,180,18.0,26.0,95,0.00,,,0.15,56.000000,,2013-06-24 01:42:00,
2013-06-23 18:53:00,60.0,59.0,29.67,SSW,196,17.0,26.0,95,0.00,,,0.15,33.000000,,2013-06-24 01:53:00,
2013-06-23 19:01:00,60.0,59.0,29.67,South,191,16.0,24.0,95,0.00,,,0.15,49.000000,,2013-06-24 02:01:00,
2013-06-23 19:11:00,60.0,59.0,29.67,South,191,16.0,24.0,95,0.00,,,0.15,49.000000,,2013-06-24 02:11:00,
2013-06-23 19:21:00,60.0,59.0,29.67,SSW,208,17.0,24.0,95,0.00,,,0.15,42.000000,,2013-06-24 02:21:00,
2013-06-23 19:33:00,59.0,58.0,29.67,SSW,197,22.0,27.0,95,0.01,,,0.16,14.000000,,2013-06-24 02:33:00,
2013-06-23 19:42:00,59.0,58.0,29.67,SSW,197,22.0,27.0,95,0.01,,,0.16,14.000000,,2013-06-24 02:42:00,
2013-06-23 19:53:00,59.0,58.0,29.67,SSW,198,22.0,29.0,95,0.01,,,0.16,14.000000,,2013-06-24 02:53:00,
2013-06-23 20:01:00,58.0,57.0,29.67,South,191,18.0,25.0,95,0.03,,,0.18,19.000000,,2013-06-24 03:01:00,
2013-06-23 20:11:00,58.0,57.0,29.67,South,191,18.0,25.0,95,0.03,,,0.18,19.000000,,2013-06-24 03:11:00,
2013-06-23 20:22:00,58.0,57.0,29.67,SSW,200,17.0,26.0,95,0.04,,,0.20,16.000000,,2013-06-24 03:22:00,
2013-06-23 20:42:00,58.0,57.0,29.67,South,173,19.0,24.0,96,0.06,,,0.22,9.000000,,2013-06-24 03:42:00,
2013-06-23 20:53:00,58.0,57.0,29.67,South,189,17.0,26.0,96,0.08,,,0.24,5.000000,,2013-06-24 03:53:00,
2013-06-23 21:01:00,58.0,57.0,29.67,South,191,16.0,24.0,96,0.10,,,0.28,0.000000,,2013-06-24 04:01:00,
2013-06-23 21:11:00,58.0,57.0,29.67,South,191,16.0,24.0,96,0.10,,,0.28,0.000000,,2013-06-24 04:11:00,
2013-06-23 21:22:00,58.0,57.0,29.67,South,176,11.0,24.0,96,0.12,,,0.31,0.000000,,2013-06-24 04:22:00,
2013-06-23 21:33:00,58.0,57.0,29.67,South,176,11.0,24.0,96,0.12,,,0.31,0.000000,,2013-06-24 04:33:00,
2013-06-23 21:43:00,58.0,57.0,29.68,WSW,257,15.0,21.0,96,0.15,,,0.36,0.000000,,2013-06-24 04:43:00,
2013-06-23 21:52:00,58.0,57.0,29.70,West,260,14.0,19.0,96,0.18,,,0.41,0.000000,,2013-06-24 04:52:00,
2013-06-23 22:02:00,57.0,56.0,29.71,WSW,258,15.0,20.0,96,0.14,,,0.41,0.000000,,2013-06-24 05:02:00,
2013-06-23 22:12:00,57.0,56.0,29.71,WSW,258,15.0,20.0,96,0.14,,,0.41,0.000000,,2013-06-24 05:12:00,
2013-06-23 22:22:00,57.0,56.0,29.71,WSW,243,15.0,18.0,96,0.11,,,0.41,0.000000,,2013-06-24 05:22:00,
2013-06-23 22:33:00,57.0,56.0,29.72,SW,230,14.0,18.0,96,0.06,,,0.42,0.000000,,2013-06-24 05:33:00,
2013-06-23 22:43:00,57.0,56.0,29.72,SW,230,14.0,18.0,96,0.06,,,0.42,0.000000,,2013-06-24 05:43:00,
2013-06-23 22:53:00,57.0,56.0,29.73,SW,227,18.0,22.0,96,0.04,,,0.44,0.000000,,2013-06-24 05:53:00,
2013-06-23 23:02:00,56.0,55.0,29.74,SW,232,16.0,23.0,96,0.05,,,0.45,0.000000,,2013-06-24 06:02:00,
2013-06-23 23:12:00,56.0,55.0,29.74,SW,232,16.0,23.0,96,0.05,,,0.45,0.000000,,2013-06-24 06:12:00,
2013-06-23 23:22:00,56.0,55.0,29.74,SW,219,17.0,21.0,96,0.06,,,0.45,0.000000,,2013-06-24 06:22:00,
2013-06-23 23:43:00,56.0,55.0,29.74,SSW,207,15.0,19.0,96,0.06,,,0.46,0.000000,,2013-06-24 06:43:00,
2013-06-23 23:54:00,56.0,55.0,29.73,South,177,14.0,18.0,96,0.04,,,0.46,0.000000,,2013-06-24 06:54:00,